Airport View

Enter AWOS ICAO identifier for current METAR.

ex. KFNL

KCQW 022315Z AUTO 23006KT 10SM CLR 28/17 A3004 RMK AO2

2 Jun 2020 23:23

Frequency: 124.825

Phone: 843-537-3301

Other Area AWOS: KBBP - KRCZ - KUDG - KAFP

TAF KFLO 021720Z 0218/0318 23007KT P6SM FEW120 FM030000 20006KT P6SM FEW120